Date,TemperatureHighF,TemperatureAvgF,TemperatureLowF,DewpointHighF,DewpointAvgF,DewpointLowF,HumidityHigh,HumidityAvg,HumidityLow,PressureMaxIn,PressureMinIn,WindSpeedMaxMPH,WindSpeedAvgMPH,GustSpeedMaxMPH,PrecipitationSumIn
2012-1-1,76.2,63.3,52.6,59.2,54.9,51.2,97,77,44,30.23,30.08,6,1,8,0.00
2012-1-2,63.7,58.9,48.9,60.3,47.0,29.6,94,68,31,30.15,30.03,10,5,16,0.01
2012-1-3,49.2,42.3,36.0,31.7,17.6,10.0,52,37,24,30.35,30.10,16,7,26,0.00
2012-1-4,55.6,41.8,31.6,31.6,23.8,16.1,73,50,28,30.39,30.25,6,2,9,0.00
2012-1-5,67.6,51.5,32.3,48.6,42.3,29.1,93,73,47,30.27,30.11,10,3,16,0.00
2012-1-6,72.0,57.9,47.1,56.1,50.1,45.4,96,78,45,30.19,30.06,4,1,6,0.00
2012-1-7,71.5,57.3,46.6,58.2,50.5,45.1,96,80,48,30.15,30.06,3,0,7,0.00
2012-1-8,78.0,62.2,47.7,56.2,50.9,46.3,96,71,38,30.20,30.10,4,0,6,0.00
2012-1-9,78.3,64.2,52.0,61.7,56.6,50.6,96,78,50,30.19,30.03,5,1,9,0.00
2012-1-10,79.2,65.8,54.0,61.7,57.3,52.6,96,76,48,30.07,29.90,5,1,9,0.00
2012-1-11,72.3,65.7,59.9,66.4,60.4,57.3,92,83,76,29.93,29.69,9,4,21,0.04
2012-1-12,60.3,59.8,59.4,57.7,57.3,57.1,92,92,91,29.79,29.78,1,0,21,0.00
2012-1-13,64.2,54.9,47.9,59.9,40.5,27.9,86,60,33,30.18,29.89,7,4,0,0.00
2012-1-14,53.7,46.7,39.8,38.5,27.8,21.6,73,50,30,30.32,30.17,7,4,0,0.00
2012-1-19,70.7,70.2,69.4,33.1,29.7,25.9,25,22,20,30.05,30.04,3,2,9,0.00
2012-1-20,77.0,69.2,60.1,54.6,52.2,47.1,80,57,36,30.16,30.06,7,2,12,0.00
2012-1-21,76.8,64.7,55.0,58.4,55.2,52.4,92,73,47,30.11,29.97,6,1,11,0.00
2012-1-22,80.5,63.9,50.1,62.0,55.0,46.8,97,77,32,30.10,30.01,4,1,11,0.00
2012-1-23,81.3,67.8,56.2,65.2,60.5,55.1,97,80,48,30.11,29.99,5,1,11,0.00
2012-1-24,82.3,70.0,59.9,66.1,62.0,58.2,96,78,47,30.14,30.04,5,1,11,0.00
2012-1-25,83.0,70.2,60.7,66.0,61.2,53.3,96,76,37,30.14,30.03,5,2,11,0.01
2012-1-26,82.3,71.4,60.3,66.4,62.4,58.8,96,75,50,30.06,29.90,10,3,17,0.00
2012-1-27,71.2,66.7,55.1,67.4,62.0,52.3,93,85,75,30.02,29.86,9,4,15,0.04
2012-1-28,71.3,59.3,51.1,54.0,51.2,46.2,95,77,47,30.14,30.01,8,2,13,0.01
2012-1-29,72.8,60.0,51.0,53.2,49.3,43.6,94,71,37,30.27,30.13,6,2,11,0.00
2012-1-30,64.1,51.2,45.3,50.1,44.5,40.3,87,79,51,30.34,30.24,5,2,13,0.00
2012-1-31,67.1,62.8,59.5,56.0,54.5,53.3,80,74,68,30.32,30.31,2,2,11,0.00
2012-2-1,80.1,71.5,57.7,60.3,57.4,52.8,96,63,40,30.22,30.08,5,2,11,0.00
2012-2-2,81.3,67.9,58.0,63.1,58.5,55.3,95,75,43,30.14,30.03,5,1,8,0.00
2012-2-3,73.5,66.1,61.5,63.5,60.6,58.6,95,83,63,30.20,30.09,5,1,9,0.00
2012-2-4,81.3,70.4,63.3,63.7,61.4,58.6,92,74,51,30.16,30.02,6,2,10,0.00
2012-2-5,82.7,71.3,62.4,67.5,64.0,60.8,96,80,52,30.04,29.92,4,1,8,0.04
2012-2-6,79.6,70.1,65.4,69.8,65.8,63.6,96,87,66,30.05,29.94,7,1,12,0.03
2012-2-7,68.5,65.0,58.5,65.0,62.1,56.2,96,91,82,30.03,29.95,5,2,10,0.00
2012-2-8,76.7,63.9,55.8,57.0,52.1,43.7,93,70,32,30.06,29.96,7,3,11,0.00
2012-2-9,69.4,61.4,55.2,56.7,52.8,49.6,85,74,56,30.13,30.02,6,2,12,0.00
2012-2-10,81.2,67.1,57.0,67.4,60.6,54.4,93,81,56,30.08,29.83,9,2,16,0.67
2012-2-11,66.1,58.4,47.3,60.9,47.2,26.9,93,68,39,30.09,29.80,16,8,25,0.02
2012-2-12,50.9,41.1,30.9,32.2,20.9,13.7,82,46,25,30.31,30.09,10,5,19,0.00
2012-2-13,66.2,49.5,33.1,47.7,35.0,19.9,92,60,36,30.25,30.06,5,1,9,0.00
2012-2-14,78.0,64.2,48.9,56.8,52.4,46.1,92,68,43,30.09,29.98,8,2,14,0.00
2012-2-15,83.0,70.0,59.2,61.8,59.0,55.9,90,70,46,30.16,30.05,5,2,9,0.00
2012-2-16,81.4,71.4,63.7,64.9,61.8,60.1,91,73,50,30.12,29.98,8,2,14,0.00
2012-2-17,75.2,68.4,62.2,68.1,65.1,59.9,94,89,75,30.03,29.93,5,1,9,0.02
2012-2-18,77.8,70.1,65.0,67.6,65.2,63.4,96,85,66,29.97,29.82,6,1,10,0.00
2012-2-19,83.3,70.9,62.6,70.7,63.9,54.3,95,79,60,29.86,29.69,14,7,23,0.00
2012-2-20,69.0,59.0,51.4,55.2,49.5,45.8,88,72,46,30.17,29.86,10,4,14,0.00
2012-2-21,76.8,62.9,49.6,57.2,50.9,46.4,95,68,36,30.20,30.05,5,1,9,0.00
2012-2-22,78.1,66.7,59.4,65.4,60.5,55.9,96,82,60,30.07,29.84,17,2,26,0.69
2012-2-23,82.9,73.0,65.2,70.6,66.5,63.4,95,81,57,29.91,29.81,8,4,14,0.00
2012-2-24,86.0,74.1,65.5,69.7,65.0,60.1,95,76,44,29.95,29.85,14,5,22,0.00
2012-2-25,71.1,63.4,55.0,67.9,44.0,33.5,92,52,28,30.21,29.93,8,4,13,0.00
2012-2-26,69.5,61.4,52.8,62.4,50.9,37.7,84,69,53,30.29,30.19,6,2,9,0.00
2012-2-27,84.0,71.4,64.9,68.3,65.0,61.7,94,82,53,30.25,30.14,6,1,11,0.00
2012-2-28,80.8,69.9,64.0,67.2,64.6,61.6,96,84,63,30.23,30.14,4,1,8,0.00
2012-2-29,85.8,73.6,64.4,68.7,64.1,62.1,96,75,48,30.18,30.01,7,2,13,0.00
2012-3-1,86.0,74.2,65.9,68.0,64.6,59.1,95,75,42,30.06,29.92,7,3,12,0.00
2012-3-2,85.8,73.1,62.8,67.9,63.5,60.3,96,75,45,30.00,29.87,7,2,11,0.00
2012-3-3,87.9,76.4,68.1,70.1,65.1,58.3,94,71,39,29.88,29.71,10,5,18,0.00
2012-3-4,76.1,63.1,52.1,70.2,45.6,24.6,92,57,21,30.16,29.60,17,8,27,0.31
2012-3-5,75.8,59.9,43.0,50.4,38.3,26.5,91,51,19,30.31,30.16,7,2,13,0.00
2012-3-6,74.6,63.8,52.9,55.7,52.5,48.1,88,68,49,30.37,30.25,8,3,16,0.00
2012-3-7,77.5,68.1,57.5,62.5,57.6,53.1,91,70,50,30.35,30.24,6,3,11,0.00
2012-3-8,83.2,71.0,61.0,66.4,63.4,59.5,96,79,51,30.25,30.10,5,2,10,0.00
2012-3-9,84.2,73.1,68.5,68.7,66.6,64.6,94,82,53,30.16,30.01,11,2,19,0.31
2012-3-10,80.4,70.0,65.2,67.3,65.2,62.8,94,85,63,30.18,30.04,10,4,14,0.00
2012-3-11,69.0,67.2,65.1,66.4,64.6,61.7,96,91,82,30.26,30.15,6,3,11,0.54
2012-3-12,80.1,70.6,64.1,62.7,60.4,58.6,85,71,51,30.25,30.15,4,2,14,0.00
2012-3-13,82.3,69.8,58.5,63.2,59.5,56.6,95,72,46,30.21,30.10,3,1,7,0.00
2012-3-14,83.5,70.5,59.6,65.0,61.2,57.9,96,75,44,30.19,30.09,4,1,11,0.00
2012-3-15,85.6,75.6,64.5,65.8,63.5,60.6,90,68,44,30.20,30.11,5,2,14,0.00
2012-3-16,84.5,72.0,61.7,66.4,62.2,58.6,96,74,44,30.19,30.08,4,1,10,0.00
2012-3-17,83.5,71.1,60.0,65.2,60.0,54.8,96,71,41,30.19,30.08,5,1,11,0.00
2012-3-18,85.0,71.2,60.1,66.2,59.9,55.5,95,71,38,30.21,30.08,4,1,7,0.00
2012-3-19,80.1,66.2,60.7,64.9,61.2,59.3,96,85,54,30.14,30.08,4,0,8,0.00
2012-3-20,84.8,77.4,68.6,64.0,62.5,59.3,84,62,45,30.06,29.98,5,3,12,0.00
2012-3-21,82.4,70.5,65.4,68.7,65.2,63.3,95,84,58,30.10,30.01,7,1,14,0.00
2012-3-22,87.9,79.8,70.6,68.9,65.2,60.5,89,63,42,30.12,30.00,6,2,10,0.00
2012-3-23,87.8,75.2,65.6,66.9,63.6,58.3,95,70,39,30.08,29.93,6,2,10,0.00
2012-3-24,85.3,75.1,66.9,68.4,64.2,60.3,89,71,49,29.98,29.82,7,3,14,0.00
2012-3-25,81.2,73.5,66.6,67.7,59.3,44.8,92,65,29,29.87,29.74,13,6,20,0.00
2012-3-26,70.9,63.6,59.3,60.5,58.5,54.1,93,84,57,29.90,29.82,5,2,8,0.00
2012-4-2,89.3,82.1,70.7,67.0,61.7,57.9,82,52,38,29.87,29.77,7,4,10,0.00
2012-4-3,92.0,77.9,64.3,68.7,61.9,48.8,96,64,25,29.92,29.82,6,2,11,0.00
2012-4-4,89.8,77.4,65.8,66.7,61.7,51.1,94,63,30,29.91,29.73,7,3,13,0.00
2012-4-5,86.5,76.1,68.6,67.2,64.3,58.5,85,68,42,29.79,29.67,13,4,20,0.00
2012-4-6,83.3,73.4,64.7,69.4,61.5,45.4,90,70,27,29.93,29.66,14,5,28,0.19
2012-4-7,80.5,68.7,59.5,57.5,54.5,51.3,80,62,39,30.11,29.92,6,3,13,0.00
2012-4-8,82.5,69.8,57.3,56.3,53.1,50.5,84,58,34,30.15,30.00,3,1,8,0.00
2012-4-9,84.7,71.0,57.2,60.3,55.0,49.8,91,61,32,30.05,29.92,5,1,10,0.00
2012-4-10,87.2,74.0,60.3,63.0,58.2,49.8,94,62,30,30.02,29.88,7,2,11,0.00
2012-4-11,85.0,74.2,64.7,65.3,57.8,48.4,91,61,30,30.00,29.88,8,3,13,0.00
2012-4-12,70.1,69.7,69.1,60.1,59.5,58.9,72,70,68,29.96,29.95,3,2,6,0.00
2012-4-16,86.3,78.6,69.6,63.4,60.3,54.9,74,55,36,30.17,30.08,6,2,11,0.00
2012-4-17,87.0,73.7,61.5,62.6,59.5,55.2,93,64,36,30.13,29.99,6,2,13,0.00
2012-4-18,86.8,76.1,65.5,66.0,61.4,55.0,87,63,36,30.05,29.89,8,2,11,0.00
2012-4-19,83.4,74.4,67.4,69.2,66.4,63.3,90,77,54,29.93,29.82,10,2,13,0.00
2012-4-20,88.3,73.1,67.4,70.8,66.8,62.3,94,82,50,29.86,29.75,7,2,9,0.12
2012-4-21,83.0,71.1,65.5,68.5,65.4,63.1,94,83,57,29.82,29.53,9,2,14,0.11
2012-4-22,80.0,69.3,62.0,64.4,61.9,52.7,95,79,57,29.68,29.45,14,5,21,0.36
2012-4-23,71.3,64.7,58.0,52.7,44.0,33.8,64,48,26,29.84,29.67,15,8,24,0.00
2012-4-24,72.6,62.1,53.6,45.8,36.1,26.8,66,41,20,29.99,29.84,10,4,14,0.00
2012-4-25,83.1,67.9,50.4,54.8,47.7,37.5,90,52,22,30.07,29.96,5,2,9,0.00
2012-4-26,87.7,72.4,56.3,62.8,56.5,52.3,91,62,31,30.10,29.97,7,2,10,0.00
2012-4-27,90.9,75.4,60.2,65.8,59.0,44.0,95,63,21,30.08,29.96,5,1,9,0.00
2012-4-28,90.1,77.3,64.3,69.0,65.3,60.9,94,69,40,30.05,29.95,4,1,8,0.00
2012-4-29,88.0,77.2,69.2,71.6,68.1,63.1,95,76,46,30.07,29.98,3,1,8,0.00
2012-4-30,88.8,77.1,68.9,70.8,67.3,62.7,94,74,46,30.07,29.98,5,2,13,0.00
2012-5-1,88.9,78.2,70.6,71.4,68.4,66.1,91,73,50,30.05,29.96,5,2,12,0.00
2012-5-2,90.8,78.6,67.8,70.2,67.1,62.6,95,71,42,30.05,29.98,4,2,11,0.00
2012-5-3,92.1,79.0,68.9,69.8,67.1,61.9,93,70,37,30.06,29.97,5,2,12,0.00
2012-5-4,90.8,78.2,67.7,70.1,66.5,62.6,95,70,41,30.06,29.92,4,1,8,0.00
2012-5-5,93.2,80.1,68.4,69.3,65.9,59.5,93,66,35,29.97,29.83,6,2,12,0.00
2012-5-6,92.6,79.5,71.2,72.1,68.1,61.9,93,71,38,29.92,29.79,13,3,25,0.64
2012-5-7,90.0,75.7,69.5,73.0,68.3,64.1,94,79,44,29.87,29.78,6,2,9,0.08
2012-5-8,90.1,75.7,67.2,70.9,67.8,61.6,96,79,40,29.86,29.76,7,1,11,0.17
2012-5-9,87.2,76.6,70.0,73.3,69.9,67.1,95,81,57,29.83,29.70,10,3,17,0.10
2012-5-10,87.4,76.7,68.3,71.1,65.4,54.2,93,71,34,29.88,29.71,6,3,12,0.02
2012-5-11,88.6,76.3,65.8,67.7,62.7,57.8,95,66,40,30.07,29.86,4,1,13,0.00
2012-5-12,87.0,76.1,65.2,67.5,62.3,58.1,89,64,42,30.14,30.04,4,2,12,0.00
2012-5-13,84.0,75.5,65.5,68.0,64.9,61.1,88,71,55,30.09,29.97,5,1,10,0.00
2012-5-14,86.4,75.6,71.8,71.0,68.7,63.8,93,80,53,30.01,29.88,7,1,10,0.07
2012-5-15,92.2,77.6,69.2,70.4,67.7,64.7,94,74,42,29.98,29.85,8,2,14,0.00
2012-5-16,79.2,72.3,69.1,72.2,68.5,65.8,95,88,75,29.97,29.88,7,1,10,0.40
2012-5-17,87.8,76.6,69.0,70.9,68.1,65.4,96,77,49,29.91,29.77,6,2,10,0.05
2012-5-18,88.8,75.5,66.6,70.9,66.6,58.9,95,76,38,29.90,29.80,8,2,14,0.17
2012-5-19,87.6,76.4,68.1,70.3,67.1,62.7,93,75,46,29.95,29.85,7,2,14,0.01
2012-5-20,87.7,76.3,66.2,65.5,57.8,19.0,91,60,12,29.95,29.85,8,2,13,0.00
2012-5-21,89.3,77.0,66.0,66.2,61.4,55.1,90,63,32,29.94,29.83,9,3,14,0.00
2012-5-22,93.7,80.3,67.1,70.7,63.4,51.8,93,62,25,29.91,29.78,8,2,11,0.01
2012-5-23,95.8,80.1,68.7,72.0,65.8,50.0,93,66,25,29.87,29.76,4,2,9,0.00
2012-5-24,88.8,79.5,70.7,77.0,71.5,68.7,95,78,57,29.87,29.80,7,1,8,0.11
2012-5-25,93.3,81.2,72.6,74.1,70.9,66.4,94,73,45,30.00,29.85,6,2,12,0.00
2012-5-26,94.0,80.2,69.0,71.9,67.3,62.7,96,68,37,30.00,29.88,6,2,11,0.00
2012-5-27,90.8,79.0,72.2,72.3,67.9,64.3,89,71,44,29.91,29.73,11,4,17,0.04
2012-5-28,86.5,76.7,72.5,74.5,71.1,67.4,90,83,64,29.86,29.74,9,4,9,0.33
2012-5-29,81.3,75.4,72.0,74.8,71.5,68.2,93,88,75,29.89,29.78,12,4,16,0.24
2012-5-30,90.9,81.5,75.0,76.4,72.9,68.3,93,77,50,29.84,29.73,11,4,17,0.01
2012-5-31,92.3,80.3,74.2,75.8,72.0,67.3,95,77,48,29.87,29.77,8,2,13,0.00
2012-6-1,78.7,74.3,71.2,72.5,70.6,68.2,95,89,79,29.90,29.79,5,2,11,0.72
2012-6-2,89.7,79.4,70.9,73.4,69.7,67.0,96,75,49,29.91,29.81,11,5,17,0.00
2012-6-3,92.1,80.9,70.3,69.3,64.6,55.7,89,61,32,29.99,29.88,7,3,13,0.00
2012-6-4,92.1,81.1,69.9,72.3,68.9,65.1,88,68,45,29.93,29.76,10,4,16,0.00
2012-6-5,88.7,77.4,72.8,75.3,72.2,65.2,92,85,58,29.81,29.73,10,3,17,0.31
2012-6-6,86.3,74.9,69.3,76.3,70.7,65.6,93,87,66,29.88,29.76,13,2,18,1.63
2012-6-7,84.1,74.9,71.5,75.2,71.5,69.8,96,90,70,29.92,29.84,10,2,14,1.97
2012-6-8,77.6,73.0,71.7,74.1,71.5,70.5,96,95,88,29.92,29.84,3,1,13,0.01
2012-8-14,94.5,79.4,74.3,76.0,72.6,71.2,93,82,49,29.98,29.92,12,2,16,0.29
2012-8-15,95.1,82.8,72.9,77.5,74.0,71.1,96,77,49,29.99,29.89,8,1,10,0.01
2012-8-16,94.7,83.8,75.8,77.3,74.1,71.9,94,74,52,30.01,29.92,9,2,15,0.00
2012-8-17,91.1,81.1,75.1,78.3,74.5,68.5,91,81,57,29.98,29.88,12,2,23,0.08
2012-8-18,84.0,78.9,75.3,78.1,74.4,72.4,95,86,73,29.94,29.83,10,2,12,0.04
2012-8-19,93.3,80.4,75.0,78.5,74.7,72.6,94,84,57,29.92,29.83,14,3,19,0.74
2012-8-20,95.0,81.8,74.2,77.8,74.5,71.3,95,80,51,29.99,29.80,10,3,14,0.76
2012-8-21,93.4,76.7,71.4,77.5,71.5,68.7,95,86,49,30.05,29.89,11,3,18,0.19
2012-8-22,87.2,75.6,72.0,75.2,71.4,68.2,95,87,65,30.06,29.93,19,2,28,0.04
2012-8-23,91.3,81.0,72.7,74.7,71.8,67.4,93,75,54,30.05,29.97,8,2,12,0.00
2012-8-24,91.6,81.3,74.7,76.4,72.5,69.6,89,76,54,30.01,29.90,4,1,9,0.03
2012-8-25,88.4,78.9,73.4,77.0,72.7,69.4,94,82,60,29.98,29.91,6,2,16,0.00
2012-8-26,84.0,78.6,75.2,77.4,75.1,71.8,93,89,78,29.95,29.80,5,3,12,0.07
2012-8-27,79.9,77.0,73.3,77.0,74.8,71.7,96,93,87,29.85,29.73,5,2,15,1.90
2012-8-28,88.5,80.2,75.3,79.5,75.9,73.1,95,87,71,29.94,29.83,8,3,14,0.93
2012-8-29,90.9,80.8,73.8,78.6,74.8,72.1,96,83,61,29.95,29.85,7,2,12,0.16
2012-8-30,94.2,82.0,73.9,78.0,74.7,71.3,97,80,49,30.06,29.90,3,1,12,0.00
2012-8-31,92.3,82.8,75.4,79.3,75.5,71.0,96,80,53,30.13,30.03,3,0,12,0.00
2012-9-1,92.1,82.4,75.1,78.2,74.0,68.1,96,78,47,30.10,29.99,3,0,12,0.00
2012-9-2,91.5,80.9,70.9,74.1,70.5,65.8,96,73,45,30.04,29.91,2,0,12,0.00
2012-9-3,93.7,81.2,69.9,74.7,69.6,60.4,95,71,34,30.00,29.90,4,1,12,0.00
2012-9-4,93.1,81.4,71.7,75.1,71.4,65.7,95,74,43,29.97,29.86,7,1,12,1.86
2012-9-5,92.3,80.8,72.4,75.9,71.8,68.6,95,77,47,29.94,29.84,9,2,15,0.01
2012-9-6,90.2,78.7,72.1,75.2,72.5,70.3,95,82,57,29.96,29.87,8,2,9,0.04
2012-9-7,92.7,78.8,71.6,76.1,72.5,69.8,95,83,51,29.95,29.83,8,2,12,0.12
2012-9-8,92.0,81.3,73.1,76.9,73.0,68.5,96,78,51,29.90,29.80,6,3,13,0.01
2012-9-9,83.0,78.3,75.3,76.9,74.7,72.5,93,89,82,29.89,29.79,8,4,12,0.18
2012-9-10,87.8,80.3,75.7,78.4,74.5,70.9,95,83,64,29.98,29.85,5,2,10,0.00
2012-9-11,88.0,79.9,74.8,75.5,70.8,66.1,91,75,58,30.08,29.95,4,2,12,0.00
2012-9-12,88.7,78.3,71.3,75.4,70.2,66.5,90,77,56,30.08,30.01,5,2,9,0.00
2012-9-13,90.3,80.3,73.0,75.6,71.4,67.5,91,76,54,30.06,29.97,4,1,9,0.00
2012-9-14,86.9,77.7,73.0,77.5,73.1,70.8,94,86,66,30.02,29.94,4,1,7,0.17
2012-9-15,85.8,78.0,72.6,76.5,72.8,70.4,95,85,69,30.04,29.94,5,1,7,0.32
2012-9-16,90.5,79.5,72.7,76.2,72.6,68.7,96,81,57,30.01,29.91,4,0,7,0.00
2012-9-17,91.4,79.6,71.8,76.6,72.5,70.1,96,80,53,29.97,29.84,6,1,11,0.00
2012-9-18,86.1,77.5,73.7,77.0,73.3,70.7,93,87,72,29.89,29.83,8,4,16,0.35
2012-9-19,86.1,78.2,74.0,78.6,74.1,72.5,95,88,71,29.95,29.84,5,2,16,0.29
2012-9-23,89.0,79.5,71.8,72.9,70.9,68.1,96,77,51,30.02,29.93,4,1,0,0.01
2012-9-24,84.7,76.9,70.6,71.9,62.4,55.4,86,63,40,30.05,29.96,5,2,0,0.00
2012-9-25,86.9,75.1,66.2,72.2,67.1,61.2,93,77,53,30.05,29.97,6,1,9,0.00
2012-9-26,91.8,79.1,69.4,76.2,71.5,67.9,97,80,49,30.06,29.97,3,0,6,0.05
2012-9-27,76.5,73.8,72.8,74.8,72.2,71.3,96,95,92,30.05,30.00,2,0,6,0.01
2012-10-1,88.8,82.6,77.4,79.0,75.7,73.8,93,80,67,29.75,29.66,7,2,12,0.10
2012-10-2,78.2,77.4,76.0,75.4,74.6,73.5,92,91,90,29.75,29.74,5,4,8,0.00
2012-10-15,87.0,79.7,71.5,74.5,71.2,68.7,94,76,60,29.84,29.76,4,1,7,0.00
2012-10-16,84.2,75.3,69.2,69.6,66.8,63.3,95,76,55,29.83,29.73,5,2,9,0.00
2012-10-17,81.5,74.0,66.0,72.4,67.8,62.6,92,81,71,29.84,29.75,5,0,7,0.00
2012-10-18,89.0,77.7,69.3,72.0,69.4,67.5,94,78,54,29.85,29.73,5,2,8,0.00
2012-11-8,66.8,58.3,45.6,46.4,43.9,40.6,92,61,40,30.12,30.02,8,2,13,0.00
2012-11-9,72.6,57.6,42.9,50.0,44.3,33.9,95,66,25,30.22,30.11,5,1,13,0.00
2012-11-10,53.8,53.1,52.4,48.8,47.7,46.0,87,82,76,30.18,30.18,1,0,13,0.00
2012-11-16,67.7,63.2,56.6,58.0,56.5,53.7,90,79,69,30.12,30.04,6,4,13,0.00
2012-11-17,78.9,66.4,59.7,63.8,60.2,56.6,94,81,57,30.11,30.02,7,3,13,0.00
2012-11-18,65.4,61.7,59.7,60.3,58.6,57.1,91,90,81,30.12,30.05,9,5,15,0.00
2012-11-27,78.8,74.4,68.8,62.6,61.4,60.2,79,65,54,30.06,30.03,3,1,7,0.00